Time;durP1;ratioP1;P1;durP2;ratioP2;P2;SDS_P1;SDS_P2;PMS_P1;PMS_P2;Temp;Humidity;BMP_temperature;BMP_pressure;BME280_temperature;BME280_humidity;BME280_pressure;Samples;Min_cycle;Max_cycle;Signal;HPM_P1;HPM_P2
2024/01/05 00:04:10;;;;;;;15.05;8.50;;;;;;;1.48;100.00;100275.47;10398792;28;20045;-79
2024/01/05 00:09:10;;;;;;;14.23;7.85;;;;;;;1.51;100.00;100281.31;10400236;28;20049;-79
2024/01/05 00:14:11;;;;;;;16.65;8.73;;;;;;;1.48;100.00;100270.03;10412024;28;20044;-80
2024/01/05 00:19:12;;;;;;;17.55;9.23;;;;;;;1.45;100.00;100246.03;10380645;28;20030;-80
2024/01/05 00:24:13;;;;;;;15.30;7.82;;;;;;;1.45;100.00;100236.03;10399508;28;20045;-80
2024/01/05 00:29:13;;;;;;;15.20;7.95;;;;;;;1.52;100.00;100239.56;10394778;28;20413;-79
2024/01/05 00:34:14;;;;;;;17.83;7.95;;;;;;;1.61;100.00;100240.19;10414392;28;20037;-80
2024/01/05 00:39:16;;;;;;;14.13;7.75;;;;;;;1.54;100.00;100231.22;10389857;28;20041;-79
2024/01/05 00:44:16;;;;;;;11.57;6.90;;;;;;;1.48;100.00;100204.94;10425597;28;20041;-79
2024/01/05 00:49:17;;;;;;;13.83;7.17;;;;;;;1.55;100.00;100206.59;10416887;28;20049;-80
2024/01/05 00:54:17;;;;;;;12.95;7.20;;;;;;;1.54;100.00;100206.81;10406348;28;20037;-74
2024/01/05 00:59:19;;;;;;;16.25;7.85;;;;;;;1.53;100.00;100207.84;10398260;28;20045;-79
2024/01/05 01:04:19;;;;;;;13.77;6.20;;;;;;;1.54;100.00;100209.53;10398547;28;20085;-79
2024/01/05 01:09:20;;;;;;;15.02;7.07;;;;;;;1.53;100.00;100202.41;10397916;28;20037;-79
2024/01/05 01:14:20;;;;;;;14.43;6.63;;;;;;;1.52;100.00;100185.31;10389633;28;20042;-79
2024/01/05 01:19:20;;;;;;;14.20;7.37;;;;;;;1.50;100.00;100164.88;10412803;28;20439;-79
2024/01/05 01:24:21;;;;;;;13.60;7.88;;;;;;;1.51;100.00;100174.66;10412648;28;20072;-79
2024/01/05 01:29:21;;;;;;;15.65;7.60;;;;;;;1.46;100.00;100174.47;10375778;28;20037;-79
2024/01/05 01:34:22;;;;;;;12.70;7.85;;;;;;;1.39;100.00;100153.63;10397710;28;20050;-79
2024/01/05 01:39:22;;;;;;;16.88;8.30;;;;;;;1.40;100.00;100138.19;10413969;28;20080;-80
2024/01/05 01:44:23;;;;;;;14.52;7.22;;;;;;;1.33;100.00;100121.94;10374429;28;20041;-80
2024/01/05 01:49:23;;;;;;;14.13;7.00;;;;;;;1.48;100.00;100134.41;10396683;28;20042;-81
2024/01/05 01:54:24;;;;;;;14.18;7.30;;;;;;;1.13;100.00;100066.91;10389069;28;20033;-80
2024/01/05 01:59:24;;;;;;;16.02;8.23;;;;;;;1.50;100.00;100119.59;10387230;28;20038;-81
2024/01/05 02:04:25;;;;;;;16.55;7.65;;;;;;;1.46;100.00;100098.53;10386951;28;20045;-80
2024/01/05 02:09:26;;;;;;;15.77;8.00;;;;;;;1.51;100.00;100101.41;10404024;28;20059;-80
2024/01/05 02:14:27;;;;;;;15.75;8.00;;;;;;;1.53;100.00;100104.75;10394048;28;20050;-79
2024/01/05 02:19:27;;;;;;;14.97;7.77;;;;;;;1.57;100.00;100089.72;10380342;28;20057;-79
2024/01/05 02:24:28;;;;;;;18.98;9.40;;;;;;;1.14;100.00;100014.38;10393202;28;20525;-79
2024/01/05 02:29:28;;;;;;;19.90;9.03;;;;;;;1.51;100.00;100075.16;10393018;28;20072;-80
2024/01/05 02:34:29;;;;;;;15.57;8.80;;;;;;;1.55;100.00;100075.53;10375896;28;20080;-80
2024/01/05 02:39:29;;;;;;;23.73;9.70;;;;;;;1.47;100.00;100063.06;10410841;28;20122;-79
2024/01/05 02:44:30;;;;;;;17.38;9.13;;;;;;;1.47;100.00;100045.94;10413956;28;20037;-81
2024/01/05 02:49:30;;;;;;;23.03;9.63;;;;;;;1.44;100.00;100046.38;10404100;28;20073;-77
2024/01/05 02:54:31;;;;;;;23.47;9.60;;;;;;;1.42;100.00;100041.16;10411796;28;21307;-79
2024/01/05 02:59:31;;;;;;;21.95;9.63;;;;;;;1.32;100.00;100022.63;10377088;28;20037;-79
2024/01/05 03:04:32;;;;;;;25.73;10.80;;;;;;;1.38;100.00;100021.75;10393240;28;20046;-79
2024/01/05 03:09:32;;;;;;;21.75;10.43;;;;;;;1.32;100.00;99995.50;10396436;28;20041;-79
2024/01/05 03:14:34;;;;;;;26.02;12.82;;;;;;;1.34;100.00;99998.84;10394610;28;20059;-79
2024/01/05 03:19:34;;;;;;;24.25;10.32;;;;;;;1.33;100.00;99982.78;10417277;28;20040;-81
2024/01/05 03:24:35;;;;;;;23.23;11.13;;;;;;;1.38;100.00;99991.94;10400547;28;20044;-80
2024/01/05 03:29:36;;;;;;;25.77;10.88;;;;;;;1.29;100.00;99976.13;10400135;28;20046;-80
2024/01/05 03:34:37;;;;;;;26.45;11.43;;;;;;;1.34;100.00;99977.13;10398011;28;20068;-75
2024/01/05 03:39:37;;;;;;;30.88;12.60;;;;;;;1.37;100.00;99960.44;10397412;28;20037;-81
2024/01/05 03:44:38;;;;;;;31.85;12.20;;;;;;;1.39;100.00;99952.09;10382448;28;20513;-81
2024/01/05 03:49:38;;;;;;;30.92;11.98;;;;;;;1.31;100.00;99928.78;10417747;28;20107;-81
2024/01/05 03:54:39;;;;;;;28.70;12.38;;;;;;;1.35;100.00;99934.59;10381095;28;20037;-81
2024/01/05 03:59:42;;;;;;;26.02;11.88;;;;;;;1.29;100.00;99920.03;10418380;28;20486;-81
2024/01/05 04:04:43;;;;;;;25.20;12.57;;;;;;;1.32;100.00;99908.72;10412907;28;20088;-81
2024/01/05 04:09:43;;;;;;;22.20;11.27;;;;;;;1.35;100.00;99912.91;10416261;28;20045;-82
2024/01/05 04:14:44;;;;;;;25.05;11.45;;;;;;;1.34;100.00;99895.78;10399593;28;20042;-82
2024/01/05 04:19:45;;;;;;;22.75;11.60;;;;;;;1.30;100.00;99885.59;10417862;28;20044;-82
2024/01/05 04:24:45;;;;;;;25.60;10.35;;;;;;;1.34;100.00;99889.53;10415779;28;20045;-82
2024/01/05 04:29:47;;;;;;;27.77;10.60;;;;;;;1.33;100.00;99871.63;10417613;28;20044;-82
2024/01/05 04:34:47;;;;;;;21.88;11.50;;;;;;;1.38;100.00;99874.47;10392668;28;20037;-81
2024/01/05 04:39:49;;;;;;;22.15;9.90;;;;;;;1.34;100.00;99863.25;10414361;28;20033;-82
2024/01/05 04:44:49;;;;;;;21.75;9.90;;;;;;;1.36;100.00;99861.13;10415112;28;20127;-82
2024/01/05 04:49:50;;;;;;;19.92;10.38;;;;;;;1.30;100.00;99844.91;10398700;28;20540;-82
2024/01/05 04:54:50;;;;;;;22.13;10.70;;;;;;;1.38;100.00;99859.03;10397643;28;20060;-82
2024/01/05 04:59:51;;;;;;;21.60;10.35;;;;;;;1.29;100.00;99840.56;10407601;28;20049;-81
2024/01/05 05:04:51;;;;;;;26.25;10.63;;;;;;;1.31;100.00;99820.31;10398340;28;20510;-82
2024/01/05 05:09:52;;;;;;;23.73;11.25;;;;;;;1.35;100.00;99832.38;10395279;28;20034;-76
2024/01/05 05:14:53;;;;;;;22.90;10.00;;;;;;;1.01;100.00;99765.88;10398302;28;20033;-82
2024/01/05 05:19:55;;;;;;;22.00;11.35;;;;;;;1.37;100.00;99810.47;10395762;28;20129;-82
2024/01/05 05:24:55;;;;;;;23.08;12.55;;;;;;;1.28;100.00;99788.22;10413961;28;20087;-82
2024/01/05 05:29:56;;;;;;;29.35;12.57;;;;;;;1.46;100.00;99819.16;10401790;28;20080;-82
2024/01/05 05:34:56;;;;;;;26.48;12.13;;;;;;;1.45;100.00;99803.91;10401035;28;20042;-82
2024/01/05 05:39:57;;;;;;;25.02;12.40;;;;;;;1.45;100.00;99799.34;10376899;28;20061;-82
2024/01/05 05:44:57;;;;;;;28.92;12.18;;;;;;;1.52;100.00;99810.13;10381055;28;20054;-82
2024/01/05 05:49:58;;;;;;;27.73;12.57;;;;;;;1.50;100.00;99813.06;10413438;28;20152;-82
2024/01/05 05:54:58;;;;;;;29.15;12.95;;;;;;;1.56;100.00;99812.19;10395700;28;20095;-81
2024/01/05 05:59:59;;;;;;;29.30;12.23;;;;;;;1.55;100.00;99790.69;10380090;28;20052;-81
2024/01/05 06:04:59;;;;;;;25.60;12.30;;;;;;;1.52;100.00;99788.44;10384902;28;20049;-83
2024/01/05 06:10:00;;;;;;;28.83;12.60;;;;;;;1.58;100.00;99793.78;10378916;28;20113;-83
2024/01/05 06:15:02;;;;;;;27.63;13.52;;;;;;;1.44;100.00;99767.84;10412890;28;20072;-84
2024/01/05 06:20:04;;;;;;;23.70;10.32;;;;;;;1.65;100.00;99784.78;10377977;28;20042;-83
2024/01/05 06:25:05;;;;;;;22.60;11.05;;;;;;;1.69;100.00;99800.38;10395088;28;20048;-82
2024/01/05 06:30:09;;;;;;;22.58;10.95;;;;;;;1.68;100.00;99793.31;10384388;28;20041;-82
2024/01/05 06:35:11;;;;;;;26.65;10.85;;;;;;;1.64;100.00;99808.38;10414230;28;20038;-82
2024/01/05 06:40:12;;;;;;;25.42;12.15;;;;;;;1.67;100.00;99790.81;10395654;28;20038;-84
2024/01/05 06:45:13;;;;;;;30.42;11.45;;;;;;;1.70;100.00;99779.53;10393643;28;20044;-83
2024/01/05 06:50:13;;;;;;;25.80;12.73;;;;;;;1.71;100.00;99782.00;10381899;28;20037;-84
2024/01/05 06:55:14;;;;;;;29.90;11.90;;;;;;;1.63;100.00;99762.47;10395781;28;20044;-84
2024/01/05 07:00:15;;;;;;;29.13;13.35;;;;;;;1.67;100.00;99769.09;10396643;28;20048;-83
2024/01/05 07:05:15;;;;;;;31.33;13.73;;;;;;;1.81;100.00;99774.16;10401966;28;20053;-82
2024/01/05 07:10:15;;;;;;;30.52;14.32;;;;;;;1.77;100.00;99769.41;10418196;28;20037;-82
2024/01/05 07:15:16;;;;;;;32.65;14.63;;;;;;;1.80;100.00;99767.09;10436264;28;20056;-82
2024/01/05 07:20:16;;;;;;;35.45;14.85;;;;;;;1.85;100.00;99760.16;10377386;28;20092;-81
2024/01/05 07:25:17;;;;;;;37.80;15.32;;;;;;;1.92;100.00;99767.19;10418006;28;20037;-81
2024/01/05 07:30:18;;;;;;;37.17;15.77;;;;;;;1.95;100.00;99765.91;10386783;28;20030;-82
2024/01/05 07:35:18;;;;;;;41.85;16.77;;;;;;;1.95;100.00;99755.06;10411157;28;20037;-82
2024/01/05 07:40:18;;;;;;;38.22;17.10;;;;;;;1.97;100.00;99755.66;10417993;28;20034;-82
2024/01/05 07:45:19;;;;;;;37.70;15.20;;;;;;;1.99;100.00;99761.69;10417988;28;20037;-83
2024/01/05 07:50:20;;;;;;;34.35;16.60;;;;;;;1.89;100.00;99723.38;10397072;28;20860;-82
2024/01/05 07:55:20;;;;;;;36.35;16.27;;;;;;;2.06;100.00;99750.75;10400892;28;20045;-82
2024/01/05 08:00:21;;;;;;;38.55;17.65;;;;;;;2.09;100.00;99742.13;10395359;28;20045;-82
2024/01/05 08:05:22;;;;;;;43.67;17.05;;;;;;;2.12;100.00;99747.94;10391397;28;20076;-83
2024/01/05 08:10:23;;;;;;;42.28;17.90;;;;;;;2.15;100.00;99750.22;10401384;28;20030;-83
2024/01/05 08:15:24;;;;;;;44.08;19.08;;;;;;;2.08;100.00;99716.88;10391991;28;20046;-82
2024/01/05 08:20:24;;;;;;;45.05;17.40;;;;;;;2.13;100.00;99711.63;10399557;28;20045;-82
2024/01/05 08:25:25;;;;;;;42.95;20.38;;;;;;;2.26;100.00;99728.81;10399488;28;20037;-84
2024/01/05 08:30:26;;;;;;;44.83;17.33;;;;;;;2.27;100.00;99709.53;10416023;28;20037;-82
2024/01/05 08:35:26;;;;;;;45.55;18.25;;;;;;;2.32;100.00;99698.84;10397853;28;20079;-82
2024/01/05 08:40:28;;;;;;;41.95;17.45;;;;;;;2.38;100.00;99699.81;10394074;28;20393;-82
2024/01/05 08:45:29;;;;;;;42.22;17.83;;;;;;;2.45;100.00;99700.53;10398600;28;20040;-81
2024/01/05 08:50:30;;;;;;;43.33;18.15;;;;;;;2.43;100.00;99692.63;10404710;28;20061;-81
2024/01/05 08:55:30;;;;;;;46.60;19.20;;;;;;;2.56;100.00;99686.19;10393048;28;20033;-83
2024/01/05 09:00:31;;;;;;;43.30;19.63;;;;;;;2.62;100.00;99696.13;10415714;28;20443;-82
2024/01/05 09:05:31;;;;;;;45.33;19.50;;;;;;;2.66;100.00;99690.22;10383101;28;20111;-82
2024/01/05 09:10:33;;;;;;;47.10;20.17;;;;;;;2.71;100.00;99707.50;10413477;28;20041;-82
2024/01/05 09:15:34;;;;;;;44.65;19.52;;;;;;;2.68;100.00;99704.41;10413703;28;20041;-82
2024/01/05 09:20:34;;;;;;;54.05;22.13;;;;;;;2.68;100.00;99693.53;10380251;28;20087;-82
2024/01/05 09:25:35;;;;;;;46.63;20.80;;;;;;;2.77;100.00;99693.00;10390052;28;20084;-82
2024/01/05 09:30:35;;;;;;;54.45;20.00;;;;;;;2.77;100.00;99681.25;10430062;28;20144;-83
2024/01/05 09:35:36;;;;;;;49.38;20.48;;;;;;;2.78;100.00;99685.66;10409510;28;20038;-85
2024/01/05 09:40:37;;;;;;;49.38;20.35;;;;;;;2.77;100.00;99681.25;10378590;28;20037;-83
2024/01/05 09:45:38;;;;;;;45.92;18.83;;;;;;;2.86;100.00;99706.25;10378462;28;20110;-83
2024/01/05 09:50:38;;;;;;;46.42;18.42;;;;;;;2.89;100.00;99703.88;10377994;28;20101;-82
2024/01/05 09:55:39;;;;;;;43.65;19.05;;;;;;;2.87;100.00;99694.28;10371205;28;20064;-81
2024/01/05 10:00:40;;;;;;;46.58;18.77;;;;;;;2.87;100.00;99695.13;10414984;28;20056;-82
2024/01/05 10:05:41;;;;;;;46.17;18.42;;;;;;;2.91;100.00;99699.03;10393645;28;20203;-82
2024/01/05 10:10:46;;;;;;;44.05;18.23;;;;;;;2.99;100.00;99706.84;10398823;28;20041;-81
2024/01/05 10:15:56;;;;;;;42.10;18.30;;;;;;;2.97;100.00;99692.66;10407636;28;20037;-82
2024/01/05 10:20:57;;;;;;;43.13;18.63;;;;;;;2.96;100.00;99691.00;10409525;28;20037;-83
2024/01/05 10:25:57;;;;;;;41.00;18.05;;;;;;;2.97;100.00;99692.66;10395681;28;20045;-82
2024/01/05 10:31:14;;;;;;;40.70;17.13;;;;;;;2.96;100.00;99682.84;10389184;28;20092;-86
2024/01/05 10:36:17;;;;;;;;;;;;;;;3.09;100.00;99697.31;10398622;28;20140;-84
2024/01/05 10:41:19;;;;;;;48.20;19.13;;;;;;;3.03;100.00;99669.97;10416955;28;19921;-83
2024/01/05 10:46:20;;;;;;;50.80;18.88;;;;;;;3.12;100.00;99681.34;10402484;28;20038;-86
2024/01/05 10:51:23;;;;;;;48.35;18.65;;;;;;;3.26;100.00;99692.81;10393881;28;20033;-82
2024/01/05 10:56:23;;;;;;;46.90;18.83;;;;;;;3.30;100.00;99694.00;10407529;28;20045;-85
2024/01/05 11:01:24;;;;;;;57.25;22.15;;;;;;;3.32;100.00;99677.47;10406049;28;20045;-84
2024/01/05 11:06:24;;;;;;;47.80;19.00;;;;;;;3.34;100.00;99678.88;10417666;28;20048;-86
2024/01/05 11:11:43;;;;;;;50.28;18.30;;;;;;;3.43;100.00;99674.75;10400498;28;20045;-85
2024/01/05 11:17:02;;;;;;;46.35;18.98;;;;;;;3.50;100.00;99674.63;10398249;28;20085;-85
2024/01/05 11:22:06;;;;;;;48.03;19.40;;;;;;;3.60;100.00;99663.16;10411311;28;20109;-84
2024/01/05 11:27:26;;;;;;;52.08;19.52;;;;;;;3.71;100.00;99658.75;10402035;28;20052;-86
2024/01/05 11:32:33;;;;;;;49.65;19.67;;;;;;;3.66;100.00;99636.84;10426952;28;20033;-85
2024/01/05 11:37:33;;;;;;;52.90;19.42;;;;;;;3.74;100.00;99653.66;10415578;28;20056;-86
2024/01/05 11:42:34;;;;;;;53.42;18.98;;;;;;;3.74;100.00;99648.22;10375165;28;20041;-85
2024/01/05 11:47:41;;;;;;;40.53;18.02;;;;;;;3.68;100.00;99651.91;10400844;28;20068;-84
2024/01/05 11:52:41;;;;;;;35.75;17.25;;;;;;;3.70;100.00;99640.75;10415027;28;20080;-84
2024/01/05 11:57:44;;;;;;;38.47;16.02;;;;;;;3.66;100.00;99624.09;10389880;28;20052;-84
2024/01/05 12:02:45;;;;;;;40.70;17.25;;;;;;;3.70;100.00;99638.88;10414533;28;20041;-84
2024/01/05 12:07:45;;;;;;;41.28;17.20;;;;;;;3.61;100.00;99621.25;10410251;28;20037;-84
2024/01/05 12:12:47;;;;;;;43.47;17.77;;;;;;;3.77;100.00;99646.91;10397858;28;20445;-83
2024/01/05 12:17:48;;;;;;;44.22;16.10;;;;;;;3.22;100.00;99553.78;10400762;28;20033;-83
2024/01/05 12:22:50;;;;;;;40.10;16.60;;;;;;;3.64;100.00;99631.66;10416823;28;20052;-84
2024/01/05 12:27:51;;;;;;;47.13;16.80;;;;;;;3.67;100.00;99642.06;10397548;28;20067;-85
2024/01/05 12:32:52;;;;;;;48.38;17.05;;;;;;;3.68;100.00;99649.16;10399791;28;20068;-86
2024/01/05 12:37:53;;;;;;;42.25;17.10;;;;;;;3.64;100.00;99648.00;10376827;28;20065;-85
2024/01/05 12:42:53;;;;;;;35.80;14.98;;;;;;;3.62;100.00;99633.81;10415629;28;20416;-84
2024/01/05 12:47:53;;;;;;;40.40;15.52;;;;;;;3.61;100.00;99637.56;10417888;28;20060;-85
2024/01/05 12:52:54;;;;;;;39.33;15.40;;;;;;;3.66;100.00;99639.56;10415989;28;20045;-84
2024/01/05 12:58:04;;;;;;;35.00;15.73;;;;;;;3.57;100.00;99620.88;10398009;28;20041;-84
2024/01/05 13:03:05;;;;;;;40.45;16.52;;;;;;;3.63;100.00;99619.09;10407080;28;20041;-85
2024/01/05 13:08:05;;;;;;;40.60;15.10;;;;;;;3.72;100.00;99634.03;10414261;28;20037;-86
2024/01/05 13:13:06;;;;;;;32.40;14.52;;;;;;;3.74;100.00;99631.88;10380621;28;20037;-85
2024/01/05 13:18:07;;;;;;;34.05;14.57;;;;;;;3.73;100.00;99624.78;10395346;28;20120;-85
2024/01/05 13:23:07;;;;;;;33.67;13.45;;;;;;;3.65;100.00;99608.81;10413763;28;20052;-86
2024/01/05 13:28:07;;;;;;;35.88;13.57;;;;;;;3.70;100.00;99619.81;10416136;28;20045;-84
2024/01/05 13:33:08;;;;;;;32.22;13.90;;;;;;;3.64;100.00;99609.91;10409782;28;20053;-84
2024/01/05 13:38:09;;;;;;;29.83;13.35;;;;;;;3.68;100.00;99621.97;10402671;28;20076;-83
2024/01/05 13:43:09;;;;;;;33.00;14.50;;;;;;;3.72;100.00;99633.16;10397569;28;20049;-83
2024/01/05 13:48:10;;;;;;;32.80;14.50;;;;;;;3.72;100.00;99630.44;10377453;28;20042;-84
2024/01/05 13:53:12;;;;;;;30.10;13.80;;;;;;;3.60;100.00;99595.94;10429104;28;20045;-84
2024/01/05 13:58:13;;;;;;;39.72;17.25;;;;;;;3.82;100.00;99626.06;10393843;28;20037;-83
2024/01/05 14:03:14;;;;;;;43.35;16.58;;;;;;;3.80;100.00;99619.19;10411798;28;20029;-84
2024/01/05 14:08:15;;;;;;;43.25;17.20;;;;;;;3.90;100.00;99640.34;10374471;28;20034;-84
2024/01/05 14:13:16;;;;;;;35.47;15.15;;;;;;;3.95;100.00;99643.16;10376027;28;20033;-84
2024/01/05 14:18:16;;;;;;;32.38;14.57;;;;;;;3.95;100.00;99626.84;10409688;28;20497;-85
2024/01/05 14:23:16;;;;;;;32.20;13.93;;;;;;;4.07;100.00;99656.75;10394498;28;20038;-84
2024/01/05 14:28:17;;;;;;;30.23;14.18;;;;;;;4.15;100.00;99653.66;10393621;28;20046;-83
2024/01/05 14:33:17;;;;;;;34.50;13.82;;;;;;;4.05;100.00;99632.50;10374913;28;20038;-83
2024/01/05 14:38:18;;;;;;;33.88;13.38;;;;;;;4.24;100.00;99658.50;10411614;28;20048;-83
2024/01/05 14:43:18;;;;;;;32.95;12.45;;;;;;;4.18;100.00;99647.75;10406605;28;20041;-83
2024/01/05 14:48:20;;;;;;;30.77;12.95;;;;;;;4.27;100.00;99653.63;10401216;28;20048;-82
2024/01/05 14:53:21;;;;;;;31.90;12.57;;;;;;;4.22;100.00;99652.47;10377694;28;20088;-84
2024/01/05 14:58:21;;;;;;;27.55;11.60;;;;;;;4.08;100.00;99653.00;10427074;28;20654;-84
2024/01/05 15:03:23;;;;;;;22.45;9.35;;;;;;;4.01;100.00;99674.88;10389088;28;20077;-84
2024/01/05 15:08:24;;;;;;;16.23;8.60;;;;;;;3.78;100.00;99673.91;10377848;28;20041;-85
2024/01/05 15:13:24;;;;;;;17.30;8.35;;;;;;;3.64;100.00;99681.47;10397550;28;20513;-87
2024/01/05 15:18:26;;;;;;;15.68;9.55;;;;;;;3.58;100.00;99692.50;10362997;28;20558;-85
2024/01/05 15:23:26;;;;;;;19.63;9.07;;;;;;;3.33;100.00;99669.06;10400394;28;20120;-86
2024/01/05 15:28:27;;;;;;;19.58;9.55;;;;;;;3.36;100.00;99675.91;10356855;28;20034;-86
2024/01/05 15:33:28;;;;;;;14.70;8.27;;;;;;;3.36;100.00;99693.06;10414450;28;20037;-86
2024/01/05 15:38:29;;;;;;;15.88;9.27;;;;;;;3.26;100.00;99690.09;10432050;28;20045;-86
2024/01/05 15:43:29;;;;;;;20.88;10.38;;;;;;;3.32;100.00;99716.38;10417619;28;20037;-84
2024/01/05 15:48:30;;;;;;;21.55;10.32;;;;;;;3.27;100.00;99708.09;10434420;28;20045;-85
2024/01/05 15:53:30;;;;;;;18.83;10.10;;;;;;;3.11;100.00;99689.75;10375573;28;20064;-87
2024/01/05 15:58:31;;;;;;;20.08;10.88;;;;;;;3.17;100.00;99708.66;10415106;28;20507;-86
2024/01/05 16:03:31;;;;;;;22.08;11.68;;;;;;;3.19;100.00;99711.16;10415346;28;20049;-86
2024/01/05 16:08:32;;;;;;;21.08;11.68;;;;;;;3.08;100.00;99703.78;10350912;28;20048;-87
2024/01/05 16:13:32;;;;;;;21.20;11.55;;;;;;;3.06;100.00;99706.78;10389281;28;20042;-86
2024/01/05 16:18:33;;;;;;;20.58;11.48;;;;;;;3.07;100.00;99707.59;10403200;28;20045;-85
2024/01/05 16:23:33;;;;;;;20.25;12.00;;;;;;;3.08;100.00;99720.09;10414899;28;20041;-86
2024/01/05 16:28:33;;;;;;;24.10;13.18;;;;;;;3.09;100.00;99721.78;10416003;28;20506;-83
2024/01/05 16:33:35;;;;;;;23.77;13.40;;;;;;;2.95;100.00;99705.66;10390417;28;20537;-85
2024/01/05 16:38:36;;;;;;;29.90;15.73;;;;;;;2.99;100.00;99723.16;10415064;28;20065;-86
2024/01/05 16:43:37;;;;;;;26.15;15.10;;;;;;;3.01;100.00;99737.34;10397647;28;20080;-86
2024/01/05 16:48:37;;;;;;;26.55;16.15;;;;;;;2.99;100.00;99733.22;10414389;28;20462;-76
2024/01/05 16:53:37;;;;;;;30.52;16.60;;;;;;;2.93;100.00;99750.47;10429757;28;20037;-86
2024/01/05 16:58:38;;;;;;;30.45;16.98;;;;;;;2.96;100.00;99741.84;10414039;28;20048;-85
2024/01/05 17:03:38;;;;;;;34.00;17.58;;;;;;;2.92;100.00;99744.19;10391610;28;20063;-86
2024/01/05 17:08:39;;;;;;;31.75;16.33;;;;;;;2.87;100.00;99757.63;10411127;28;20057;-86
2024/01/05 17:13:39;;;;;;;34.72;18.17;;;;;;;2.86;100.00;99756.00;10371855;28;20045;-87
2024/01/05 17:18:40;;;;;;;26.60;16.35;;;;;;;2.85;100.00;99754.31;10406296;28;20119;-86
2024/01/05 17:23:42;;;;;;;30.70;17.10;;;;;;;2.68;100.00;99726.16;10410390;28;20042;-85
2024/01/05 17:28:42;;;;;;;29.17;16.80;;;;;;;2.48;100.00;99701.97;10378583;28;20034;-86
2024/01/05 17:33:43;;;;;;;29.00;17.17;;;;;;;2.88;100.00;99774.81;10380804;28;20037;-85
2024/01/05 17:38:43;;;;;;;27.85;16.75;;;;;;;2.88;100.00;99785.69;10403371;28;20048;-86
2024/01/05 17:43:44;;;;;;;31.05;16.92;;;;;;;2.82;100.00;99781.97;10406456;28;20061;-84
2024/01/05 17:48:44;;;;;;;29.67;16.58;;;;;;;2.77;100.00;99790.84;10410501;28;20037;-85
2024/01/05 17:53:46;;;;;;;29.90;16.73;;;;;;;2.73;100.00;99797.78;10394656;28;20044;-85
2024/01/05 17:58:46;;;;;;;33.65;17.17;;;;;;;2.77;100.00;99801.72;10395948;28;20111;-85
2024/01/05 18:03:47;;;;;;;30.95;17.15;;;;;;;2.70;100.00;99805.56;10404154;28;20118;-84
2024/01/05 18:08:47;;;;;;;29.20;16.23;;;;;;;2.67;100.00;99806.00;10376840;28;20076;-84
2024/01/05 18:13:48;;;;;;;33.67;16.98;;;;;;;2.59;100.00;99808.00;10428251;28;20045;-87
2024/01/05 18:18:48;;;;;;;32.35;16.40;;;;;;;2.61;100.00;99816.75;10404049;28;20627;-84
2024/01/05 18:23:49;;;;;;;30.75;16.55;;;;;;;2.62;100.00;99828.44;10371823;28;20087;-84
2024/01/05 18:28:49;;;;;;;27.27;15.15;;;;;;;2.55;100.00;99819.53;10395253;28;20038;-84
2024/01/05 18:33:50;;;;;;;27.90;15.02;;;;;;;2.61;100.00;99848.53;10387872;28;20117;-84
2024/01/05 18:38:50;;;;;;;27.50;14.70;;;;;;;2.55;100.00;99841.28;10355821;28;20521;-85
2024/01/05 18:43:51;;;;;;;25.88;14.75;;;;;;;2.43;100.00;99849.34;10390447;28;20079;-84
2024/01/05 18:48:52;;;;;;;27.10;14.60;;;;;;;2.45;100.00;99852.66;10397755;28;20049;-84
2024/01/05 18:53:52;;;;;;;62.73;30.93;;;;;;;2.37;100.00;99852.97;10377905;28;20037;-86
2024/01/05 18:58:53;;;;;;;33.47;17.20;;;;;;;2.39;100.00;99861.72;10411013;28;20053;-84
2024/01/05 19:03:53;;;;;;;27.15;14.45;;;;;;;2.32;100.00;99860.97;10420106;28;20068;-86
2024/01/05 19:08:54;;;;;;;23.75;13.68;;;;;;;2.37;100.00;99882.84;10401455;28;20038;-85
2024/01/05 19:13:54;;;;;;;28.13;15.60;;;;;;;2.26;100.00;99883.59;10417653;28;20048;-84
2024/01/05 19:18:55;;;;;;;27.80;14.77;;;;;;;2.27;100.00;99896.94;10418651;28;20566;-85
2024/01/05 19:23:55;;;;;;;28.60;14.38;;;;;;;2.24;100.00;99896.56;10412990;28;20050;-86
2024/01/05 19:28:56;;;;;;;28.23;14.53;;;;;;;2.11;100.00;99901.06;10419059;28;20054;-85
2024/01/05 19:33:56;;;;;;;28.25;15.32;;;;;;;2.04;100.00;99903.00;10355862;28;20041;-84
2024/01/05 19:38:57;;;;;;;30.50;16.35;;;;;;;2.11;100.00;99933.66;10383765;28;20051;-84
2024/01/05 19:43:59;;;;;;;32.47;16.05;;;;;;;2.14;100.00;99943.22;10398591;28;20049;-84
2024/01/05 19:48:59;;;;;;;30.80;17.10;;;;;;;2.08;100.00;99942.22;10418446;28;20068;-84
2024/01/05 19:54:00;;;;;;;33.35;17.40;;;;;;;2.00;100.00;99931.66;10416140;28;20037;-85
2024/01/05 19:59:00;;;;;;;32.83;17.25;;;;;;;2.10;100.00;99959.13;10382246;28;20076;-85
2024/01/05 20:04:01;;;;;;;38.15;16.48;;;;;;;2.08;100.00;99960.41;10388566;28;20053;-84
2024/01/05 20:09:05;;;;;;;32.42;15.18;;;;;;;1.99;100.00;99957.97;10416386;28;20037;-84
2024/01/05 20:14:05;;;;;;;32.67;18.03;;;;;;;2.02;100.00;99981.13;10367385;28;20037;-83
2024/01/05 20:19:06;;;;;;;29.40;15.40;;;;;;;1.85;100.00;99958.28;10407519;28;20042;-83
2024/01/05 20:24:07;;;;;;;31.30;14.90;;;;;;;1.96;100.00;99984.72;10402553;28;20045;-83
2024/01/05 20:29:07;;;;;;;27.17;15.25;;;;;;;1.91;100.00;99995.41;10406181;28;20046;-77
2024/01/05 20:34:08;;;;;;;30.88;15.90;;;;;;;1.84;100.00;99991.91;10393063;28;20112;-85
2024/01/05 20:39:11;;;;;;;30.13;14.80;;;;;;;1.78;100.00;99994.44;10367254;28;20106;-86
2024/01/05 20:44:11;;;;;;;29.95;15.13;;;;;;;1.77;100.00;100013.66;10402640;28;20112;-85
2024/01/05 20:49:14;;;;;;;24.52;13.85;;;;;;;1.58;100.00;99993.72;10407164;28;20042;-84
2024/01/05 20:54:16;;;;;;;28.88;16.23;;;;;;;1.68;100.00;100026.66;10413459;28;20045;-85
2024/01/05 20:59:16;;;;;;;36.77;16.07;;;;;;;1.68;100.00;100037.50;10365977;28;20044;-86
2024/01/05 21:04:19;;;;;;;26.25;15.00;;;;;;;1.69;100.00;100043.75;10415422;28;20049;-86
2024/01/05 21:09:19;;;;;;;25.35;14.98;;;;;;;1.53;100.00;100047.78;10381847;28;20096;-87
2024/01/05 21:14:20;;;;;;;34.30;16.38;;;;;;;1.58;100.00;100070.50;10364916;28;20064;-85
2024/01/05 21:19:21;;;;;;;28.63;15.23;;;;;;;1.46;100.00;100057.84;10412095;28;20508;-84
2024/01/05 21:24:21;;;;;;;27.43;15.10;;;;;;;1.52;100.00;100070.56;10413144;28;20037;-86
2024/01/05 21:29:22;;;;;;;28.70;15.67;;;;;;;1.56;100.00;100088.06;10386071;28;20038;-86
2024/01/05 21:34:22;;;;;;;27.75;15.90;;;;;;;1.47;100.00;100084.75;10411064;28;20037;-87
2024/01/05 21:39:23;;;;;;;28.20;15.55;;;;;;;1.47;100.00;100086.63;10409299;28;20044;-82
2024/01/05 21:44:23;;;;;;;29.83;15.68;;;;;;;1.41;100.00;100085.63;10375051;28;20056;-85
2024/01/05 21:49:28;;;;;;;29.52;17.05;;;;;;;1.37;100.00;100085.19;10405782;28;20037;-86
2024/01/05 21:54:28;;;;;;;31.40;16.63;;;;;;;1.33;100.00;100089.38;10373487;28;20049;-85
2024/01/05 21:59:32;;;;;;;34.15;18.67;;;;;;;1.37;100.00;100087.09;10382145;28;20069;-85
2024/01/05 22:04:33;;;;;;;26.25;15.32;;;;;;;1.37;100.00;100108.78;10391399;28;20053;-85
2024/01/05 22:09:34;;;;;;;27.48;15.73;;;;;;;1.26;100.00;100110.28;10413073;28;20086;-86
2024/01/05 22:14:34;;;;;;;33.37;18.83;;;;;;;1.34;100.00;100117.34;10380932;28;20045;-85
2024/01/05 22:19:35;;;;;;;33.65;17.90;;;;;;;1.30;100.00;100132.34;10375463;28;20045;-82
2024/01/05 22:24:35;;;;;;;33.53;18.17;;;;;;;1.23;100.00;100143.22;10404265;28;20785;-87
2024/01/05 22:29:36;;;;;;;38.97;20.73;;;;;;;1.17;100.00;100144.06;10394881;28;20099;-86
2024/01/05 22:34:38;;;;;;;33.00;19.30;;;;;;;1.07;100.00;100139.06;10388419;28;20026;-87
2024/01/05 22:39:40;;;;;;;38.22;20.15;;;;;;;1.13;100.00;100176.19;10398394;28;20044;-86
2024/01/05 22:44:44;;;;;;;37.70;20.40;;;;;;;1.15;100.00;100173.25;10394839;28;20053;-87
2024/01/05 22:49:44;;;;;;;37.07;20.10;;;;;;;1.19;100.00;100185.38;10411752;28;20052;-87